KCEF/CEF METAR and TAF weather

Enter ICAO airport designator
Station Type Date Time Source
KCEF METAR 2023/02/05 22:55 UTC NOAA

KCEF 052255Z AUTO 20010KT 10SM SCT160 05/M06 A2996 RMK AO2 SLP154 T00491058


Station Type Date Time Source
KCEF Decoded METAR 2023/02/05 22:55 UTC NOAA

Chicopee Falls / Westover Air Force Base, MA, United States (KCEF) 42-12N 072-32W 75M
Feb 05, 2023 - 05:55 PM EST / 2023.02.05 2255 UTC
Wind: from the SSW (200 degrees) at 12 MPH (10 KT):0
Visibility: 10 mile(s):0
Sky conditions: partly cloudy
Temperature: 40.8 F (4.9 C)
Dew Point: 21.6 F (-5.8 C)
Relative Humidity: 45%
Pressure (altimeter): 29.96 in. Hg (1014 hPa)
ob: KCEF 052255Z AUTO 20010KT 10SM SCT160 05/M06 A2996 RMK AO2 SLP154 T00491058
cycle: 23

Station Type Date Time Source
KCEF TAF 2023/02/05 20:55 UTC NOAA

TAF
AMD KCEF 052045Z 0520/0701 20010G15KT 9999 FEW140 SCT200 BKN240 520054 QNH2995INS
BECMG 0521/0522 19009KT 9999 FEW140 BKN200 520054 QNH2996INS
BECMG 0603/0604 21005KT 9999 SCT050 BKN130 BKN200 510054 QNH2994INS
BECMG 0607/0608 VRB03KT 9999 FEW050 QNH2994INS
BECMG 0612/0613 VRB03KT 9999 FEW020 SCT050 BKN080 620802 QNH2995INS
BECMG 0615/0616 35010G16KT 9999 SCT050 510054 QNH2993INS
TEMPO 0618/0622 36015G25KT 520005
BECMG 0621/0622 01010G16KT 9999 SCT020 510054 QNH3001INS TX08/0618Z TNM03/0612Z LAST NO
AMDS AFT 0522 NEXT 0613

Example: see airport list